CEB4806 RPVP-RPVI
Flight info
| Callsign | CEB4806 |
|---|---|
| Flight time | 0h 47m |
| Altitude | 33000 |
| Route | SAIRA1W SAIRA DCT KALAH DCT LAMBO LAMBO2S |
| Aircraft | A320/M-SDE3FGHIRWY/LB1 |
Departure
| Time | 2026-05-04 01:48 |
|---|---|
| Airport | Puerto Princesa International Airport / PAF Antonio Bautista Air Base (RPVP) |
Arrival
| Time | 2026-05-04 02:36 |
|---|---|
| Airport | Iloilo International Airport (RPVI) |
| Time | Latitude | Longitude | Altitude | Speed | Heading |
|---|---|---|---|---|---|
| 2026-05-04 01:29 | 9.74516 | 118.74954 | 82 ft | 0 kts | 2° |
| 2026-05-04 01:35 | 9.74498 | 118.74954 | 86 ft | 3 kts | 2° |
| 2026-05-04 01:35 | 9.74474 | 118.74953 | 83 ft | 3 kts | 2° |
| 2026-05-04 01:35 | 9.74450 | 118.74952 | 86 ft | 3 kts | 2° |
| 2026-05-04 01:35 | 9.74431 | 118.74950 | 85 ft | 3 kts | 33° |
| 2026-05-04 01:36 | 9.74421 | 118.74934 | 84 ft | 3 kts | 89° |
| 2026-05-04 01:36 | 9.74421 | 118.74925 | 83 ft | 2 kts | 92° |
| 2026-05-04 01:37 | 9.74421 | 118.74924 | 83 ft | 0 kts | 92° |
| 2026-05-04 01:39 | 9.74421 | 118.74927 | 81 ft | 2 kts | 92° |
| 2026-05-04 01:39 | 9.74420 | 118.74934 | 81 ft | 1 kts | 92° |
| 2026-05-04 01:40 | 9.74420 | 118.74939 | 81 ft | 0 kts | 92° |
| 2026-05-04 01:40 | 9.74420 | 118.74941 | 81 ft | 0 kts | 92° |
| 2026-05-04 01:40 | 9.74420 | 118.74952 | 81 ft | 5 kts | 92° |
| 2026-05-04 01:40 | 9.74418 | 118.75010 | 81 ft | 10 kts | 92° |
| 2026-05-04 01:41 | 9.74415 | 118.75086 | 81 ft | 12 kts | 92° |
| 2026-05-04 01:41 | 9.74411 | 118.75174 | 81 ft | 13 kts | 91° |
| 2026-05-04 01:41 | 9.74408 | 118.75272 | 82 ft | 15 kts | 92° |
| 2026-05-04 01:41 | 9.74381 | 118.75338 | 84 ft | 7 kts | 184° |
| 2026-05-04 01:42 | 9.74334 | 118.75336 | 84 ft | 6 kts | 182° |
| 2026-05-04 01:42 | 9.74290 | 118.75335 | 86 ft | 6 kts | 181° |
| 2026-05-04 01:42 | 9.74251 | 118.75337 | 84 ft | 5 kts | 164° |
| 2026-05-04 01:42 | 9.74233 | 118.75365 | 85 ft | 4 kts | 107° |
| 2026-05-04 01:43 | 9.74235 | 118.75413 | 81 ft | 10 kts | 91° |
| 2026-05-04 01:43 | 9.74231 | 118.75501 | 80 ft | 13 kts | 93° |
| 2026-05-04 01:43 | 9.74227 | 118.75594 | 82 ft | 13 kts | 92° |
| 2026-05-04 01:43 | 9.74222 | 118.75694 | 79 ft | 15 kts | 92° |
| 2026-05-04 01:44 | 9.74218 | 118.75805 | 79 ft | 16 kts | 92° |
| 2026-05-04 01:44 | 9.74208 | 118.75926 | 78 ft | 18 kts | 89° |
| 2026-05-04 01:44 | 9.74206 | 118.76056 | 78 ft | 19 kts | 92° |
| 2026-05-04 01:44 | 9.74200 | 118.76194 | 78 ft | 20 kts | 92° |
| 2026-05-04 01:45 | 9.74194 | 118.76338 | 78 ft | 21 kts | 92° |
| 2026-05-04 01:45 | 9.74187 | 118.76487 | 78 ft | 22 kts | 92° |
| 2026-05-04 01:45 | 9.74174 | 118.76782 | 76 ft | 18 kts | 92° |
| 2026-05-04 01:46 | 9.74191 | 118.76897 | 81 ft | 16 kts | 63° |
| 2026-05-04 01:46 | 9.74201 | 118.76916 | 83 ft | 2 kts | 62° |
| 2026-05-04 01:46 | 9.74220 | 118.76957 | 83 ft | 8 kts | 69° |
| 2026-05-04 01:46 | 9.74222 | 118.77012 | 79 ft | 8 kts | 94° |
| 2026-05-04 01:47 | 9.74191 | 118.77051 | 80 ft | 7 kts | 176° |
| 2026-05-04 01:47 | 9.74163 | 118.77027 | 81 ft | 5 kts | 271° |
| 2026-05-04 01:47 | 9.74164 | 118.77009 | 79 ft | 0 kts | 273° |
| 2026-05-04 01:47 | 9.74164 | 118.77008 | 79 ft | 2 kts | 273° |
| 2026-05-04 01:48 | 9.74175 | 118.76783 | 76 ft | 72 kts | 272° |
| 2026-05-04 01:48 | 9.74207 | 118.76040 | 78 ft | 136 kts | 272° |
| 2026-05-04 01:48 | 9.74255 | 118.74933 | 284 ft | 168 kts | 274° |
| 2026-05-04 01:48 | 9.74321 | 118.73724 | 875 ft | 175 kts | 276° |
| 2026-05-04 01:49 | 9.74404 | 118.72502 | 1498 ft | 178 kts | 275° |
| 2026-05-04 01:49 | 9.74501 | 118.71229 | 2053 ft | 184 kts | 277° |
| 2026-05-04 01:49 | 9.74565 | 118.69895 | 2506 ft | 197 kts | 269° |
| 2026-05-04 01:49 | 9.74296 | 118.68454 | 2915 ft | 214 kts | 244° |
| 2026-05-04 01:50 | 9.73302 | 118.67317 | 3450 ft | 223 kts | 206° |
| 2026-05-04 01:50 | 9.71780 | 118.67044 | 3970 ft | 229 kts | 166° |
| 2026-05-04 01:50 | 9.70426 | 118.67805 | 4553 ft | 232 kts | 128° |
| 2026-05-04 01:50 | 9.69755 | 118.69343 | 4876 ft | 252 kts | 98° |
| 2026-05-04 01:51 | 9.69494 | 118.71102 | 5721 ft | 248 kts | 99° |
| 2026-05-04 01:51 | 9.69144 | 118.72782 | 6741 ft | 242 kts | 102° |
| 2026-05-04 01:51 | 9.68728 | 118.74435 | 7535 ft | 242 kts | 104° |
| 2026-05-04 01:51 | 9.68279 | 118.76088 | 8295 ft | 244 kts | 104° |
| 2026-05-04 01:52 | 9.67807 | 118.77752 | 9036 ft | 247 kts | 105° |
| 2026-05-04 01:52 | 9.67324 | 118.79431 | 9775 ft | 249 kts | 105° |
| 2026-05-04 01:52 | 9.66834 | 118.81125 | 10448 ft | 252 kts | 105° |
| 2026-05-04 01:52 | 9.66340 | 118.82838 | 11086 ft | 255 kts | 105° |
| 2026-05-04 01:53 | 9.65841 | 118.84572 | 11729 ft | 258 kts | 105° |
| 2026-05-04 01:53 | 9.65403 | 118.86339 | 12369 ft | 261 kts | 97° |
| 2026-05-04 01:53 | 9.65273 | 118.88242 | 12629 ft | 282 kts | 92° |
| 2026-05-04 01:53 | 9.65181 | 118.90303 | 12781 ft | 305 kts | 92° |
| 2026-05-04 01:54 | 9.65087 | 118.92528 | 12911 ft | 327 kts | 92° |
| 2026-05-04 01:54 | 9.64989 | 118.94892 | 13217 ft | 342 kts | 92° |
| 2026-05-04 01:54 | 9.64902 | 118.97318 | 13781 ft | 347 kts | 89° |
| 2026-05-04 01:54 | 9.65207 | 118.99750 | 14306 ft | 350 kts | 79° |
| 2026-05-04 01:55 | 9.65700 | 119.02180 | 14852 ft | 353 kts | 79° |
| 2026-05-04 01:55 | 9.66196 | 119.04630 | 15395 ft | 356 kts | 79° |
| 2026-05-04 01:55 | 9.66691 | 119.07104 | 15932 ft | 360 kts | 79° |
| 2026-05-04 01:55 | 9.67187 | 119.09599 | 16472 ft | 363 kts | 79° |
| 2026-05-04 01:56 | 9.67684 | 119.12118 | 17000 ft | 366 kts | 79° |
| 2026-05-04 01:56 | 9.68188 | 119.14659 | 17524 ft | 369 kts | 79° |
| 2026-05-04 01:56 | 9.68696 | 119.17215 | 18044 ft | 373 kts | 79° |
| 2026-05-04 01:56 | 9.69210 | 119.19800 | 18506 ft | 376 kts | 79° |
| 2026-05-04 01:57 | 9.69728 | 119.22405 | 18954 ft | 378 kts | 79° |
| 2026-05-04 01:57 | 9.70248 | 119.25026 | 19401 ft | 381 kts | 79° |
| 2026-05-04 01:57 | 9.70774 | 119.27665 | 19841 ft | 383 kts | 79° |
| 2026-05-04 01:57 | 9.71304 | 119.30320 | 20282 ft | 386 kts | 79° |
| 2026-05-04 01:58 | 9.71837 | 119.32994 | 20686 ft | 389 kts | 79° |
| 2026-05-04 01:58 | 9.72366 | 119.35653 | 21088 ft | 391 kts | 79° |
| 2026-05-04 01:58 | 9.72905 | 119.38365 | 21491 ft | 394 kts | 79° |
| 2026-05-04 01:58 | 9.73447 | 119.41097 | 21894 ft | 397 kts | 79° |
| 2026-05-04 01:59 | 9.73871 | 119.43864 | 22308 ft | 398 kts | 86° |
| 2026-05-04 01:59 | 9.73920 | 119.46679 | 22694 ft | 401 kts | 90° |
| 2026-05-04 01:59 | 9.73909 | 119.49515 | 23080 ft | 404 kts | 90° |
| 2026-05-04 01:59 | 9.73899 | 119.52368 | 23468 ft | 406 kts | 90° |
| 2026-05-04 02:00 | 9.73889 | 119.55240 | 23771 ft | 409 kts | 90° |
| 2026-05-04 02:00 | 9.73879 | 119.58129 | 24088 ft | 411 kts | 90° |
| 2026-05-04 02:00 | 9.73872 | 119.61026 | 24407 ft | 413 kts | 90° |
| 2026-05-04 02:00 | 9.73866 | 119.63946 | 24710 ft | 415 kts | 90° |
| 2026-05-04 02:01 | 9.73860 | 119.66880 | 25038 ft | 417 kts | 90° |
| 2026-05-04 02:01 | 9.73853 | 119.69827 | 25339 ft | 419 kts | 90° |
| 2026-05-04 02:01 | 9.73842 | 119.72791 | 25639 ft | 422 kts | 90° |
| 2026-05-04 02:01 | 9.73832 | 119.75769 | 25961 ft | 423 kts | 90° |
| 2026-05-04 02:02 | 9.73823 | 119.78760 | 26252 ft | 426 kts | 90° |
| 2026-05-04 02:02 | 9.73815 | 119.81768 | 26547 ft | 427 kts | 90° |
| 2026-05-04 02:02 | 9.73808 | 119.84787 | 26854 ft | 429 kts | 90° |
| 2026-05-04 02:02 | 9.73798 | 119.87819 | 27132 ft | 431 kts | 90° |
| 2026-05-04 02:03 | 9.73787 | 119.90862 | 27446 ft | 432 kts | 90° |
| 2026-05-04 02:03 | 9.73779 | 119.93917 | 27706 ft | 435 kts | 90° |
| 2026-05-04 02:03 | 9.73770 | 119.96988 | 27984 ft | 437 kts | 90° |
| 2026-05-04 02:03 | 9.73760 | 120.00069 | 28285 ft | 438 kts | 90° |
| 2026-05-04 02:04 | 9.73748 | 120.03168 | 28522 ft | 441 kts | 90° |
| 2026-05-04 02:04 | 9.73735 | 120.06275 | 28810 ft | 442 kts | 90° |
| 2026-05-04 02:04 | 9.73722 | 120.09400 | 29077 ft | 445 kts | 90° |
| 2026-05-04 02:04 | 9.73708 | 120.12542 | 29323 ft | 447 kts | 91° |
| 2026-05-04 02:05 | 9.73697 | 120.15693 | 29600 ft | 448 kts | 90° |
| 2026-05-04 02:05 | 9.73688 | 120.18860 | 29819 ft | 451 kts | 90° |
| 2026-05-04 02:05 | 9.73678 | 120.22002 | 30067 ft | 452 kts | 91° |
| 2026-05-04 02:05 | 9.73663 | 120.25193 | 30253 ft | 454 kts | 91° |
| 2026-05-04 02:06 | 9.73645 | 120.28401 | 30439 ft | 456 kts | 91° |
| 2026-05-04 02:06 | 9.73629 | 120.31611 | 30652 ft | 457 kts | 91° |
| 2026-05-04 02:06 | 9.73617 | 120.34882 | 30834 ft | 459 kts | 91° |
| 2026-05-04 02:06 | 9.73603 | 120.38077 | 31070 ft | 459 kts | 91° |
| 2026-05-04 02:07 | 9.73589 | 120.41321 | 31254 ft | 461 kts | 91° |
| 2026-05-04 02:07 | 9.73573 | 120.44584 | 31413 ft | 464 kts | 91° |
| 2026-05-04 02:07 | 9.73558 | 120.47859 | 31597 ft | 465 kts | 91° |
| 2026-05-04 02:07 | 9.73541 | 120.51148 | 31762 ft | 467 kts | 91° |
| 2026-05-04 02:08 | 9.73522 | 120.54442 | 32026 ft | 467 kts | 91° |
| 2026-05-04 02:08 | 9.73505 | 120.57731 | 32292 ft | 467 kts | 91° |
| 2026-05-04 02:08 | 9.73515 | 120.61020 | 32541 ft | 467 kts | 88° |
| 2026-05-04 02:08 | 9.73978 | 120.64272 | 32814 ft | 467 kts | 76° |
| 2026-05-04 02:09 | 9.75043 | 120.67383 | 32933 ft | 467 kts | 65° |
| 2026-05-04 02:09 | 9.76655 | 120.70189 | 32962 ft | 457 kts | 55° |
| 2026-05-04 02:09 | 9.80733 | 120.75051 | 32953 ft | 451 kts | 51° |
| 2026-05-04 02:10 | 9.84831 | 120.79859 | 32952 ft | 450 kts | 50° |
| 2026-05-04 02:10 | 9.88916 | 120.84672 | 32957 ft | 450 kts | 51° |
| 2026-05-04 02:11 | 9.93001 | 120.89485 | 32950 ft | 450 kts | 51° |
| 2026-05-04 02:11 | 9.97093 | 120.94287 | 32948 ft | 450 kts | 51° |
| 2026-05-04 02:12 | 10.01092 | 120.98977 | 32948 ft | 450 kts | 50° |
| 2026-05-04 02:12 | 10.05180 | 121.03783 | 32947 ft | 450 kts | 50° |
| 2026-05-04 02:13 | 10.09271 | 121.08591 | 32941 ft | 450 kts | 51° |
| 2026-05-04 02:13 | 10.13367 | 121.13399 | 32942 ft | 450 kts | 50° |
| 2026-05-04 02:14 | 10.17455 | 121.18210 | 32947 ft | 450 kts | 50° |
| 2026-05-04 02:14 | 10.21550 | 121.23030 | 32737 ft | 451 kts | 50° |
| 2026-05-04 02:15 | 10.23599 | 121.25442 | 32496 ft | 451 kts | 50° |
| 2026-05-04 02:15 | 10.25650 | 121.27861 | 32253 ft | 453 kts | 51° |
| 2026-05-04 02:15 | 10.27702 | 121.30288 | 32013 ft | 453 kts | 51° |
| 2026-05-04 02:15 | 10.29756 | 121.32718 | 31773 ft | 454 kts | 51° |
| 2026-05-04 02:16 | 10.31813 | 121.35149 | 31539 ft | 454 kts | 50° |
| 2026-05-04 02:16 | 10.33873 | 121.37578 | 31302 ft | 453 kts | 50° |
| 2026-05-04 02:16 | 10.35928 | 121.40000 | 31070 ft | 452 kts | 50° |
| 2026-05-04 02:16 | 10.37955 | 121.42388 | 30843 ft | 452 kts | 50° |
| 2026-05-04 02:17 | 10.40011 | 121.44807 | 30619 ft | 452 kts | 50° |
| 2026-05-04 02:17 | 10.42067 | 121.47228 | 30396 ft | 453 kts | 50° |
| 2026-05-04 02:17 | 10.44151 | 121.49684 | 30166 ft | 453 kts | 50° |
| 2026-05-04 02:17 | 10.46174 | 121.52072 | 29922 ft | 453 kts | 50° |
| 2026-05-04 02:18 | 10.48225 | 121.54494 | 29662 ft | 451 kts | 51° |
| 2026-05-04 02:18 | 10.50268 | 121.56908 | 29405 ft | 450 kts | 51° |
| 2026-05-04 02:18 | 10.52303 | 121.59313 | 29135 ft | 448 kts | 51° |
| 2026-05-04 02:18 | 10.54331 | 121.61709 | 28877 ft | 446 kts | 51° |
| 2026-05-04 02:19 | 10.56352 | 121.64095 | 28624 ft | 444 kts | 51° |
| 2026-05-04 02:19 | 10.58391 | 121.66504 | 28367 ft | 443 kts | 51° |
| 2026-05-04 02:19 | 10.60393 | 121.68873 | 28108 ft | 441 kts | 51° |
| 2026-05-04 02:19 | 10.62381 | 121.71227 | 27863 ft | 437 kts | 50° |
| 2026-05-04 02:20 | 10.64355 | 121.73562 | 27615 ft | 434 kts | 50° |
| 2026-05-04 02:20 | 10.66321 | 121.75885 | 27374 ft | 433 kts | 50° |
| 2026-05-04 02:20 | 10.68285 | 121.78208 | 26497 ft | 434 kts | 50° |
| 2026-05-04 02:20 | 10.70259 | 121.80549 | 25182 ft | 437 kts | 50° |
| 2026-05-04 02:21 | 10.72234 | 121.82891 | 24081 ft | 435 kts | 50° |
| 2026-05-04 02:21 | 10.74169 | 121.85182 | 22996 ft | 430 kts | 50° |
| 2026-05-04 02:21 | 10.76108 | 121.87474 | 21918 ft | 424 kts | 50° |
| 2026-05-04 02:21 | 10.78040 | 121.89757 | 20937 ft | 416 kts | 51° |
| 2026-05-04 02:22 | 10.79859 | 121.91915 | 20435 ft | 398 kts | 51° |
| 2026-05-04 02:22 | 10.81619 | 121.94004 | 19991 ft | 381 kts | 51° |
| 2026-05-04 02:22 | 10.83309 | 121.96009 | 19512 ft | 366 kts | 51° |
| 2026-05-04 02:22 | 10.84938 | 121.97942 | 19064 ft | 354 kts | 51° |
| 2026-05-04 02:23 | 10.86524 | 121.99822 | 18614 ft | 349 kts | 51° |
| 2026-05-04 02:23 | 10.88097 | 122.01689 | 18151 ft | 346 kts | 51° |
| 2026-05-04 02:23 | 10.89657 | 122.03542 | 17670 ft | 344 kts | 51° |
| 2026-05-04 02:23 | 10.91206 | 122.05379 | 17216 ft | 341 kts | 51° |
| 2026-05-04 02:24 | 10.92744 | 122.07203 | 16774 ft | 339 kts | 51° |
| 2026-05-04 02:24 | 10.94271 | 122.09010 | 16341 ft | 335 kts | 51° |
| 2026-05-04 02:24 | 10.95783 | 122.10801 | 15909 ft | 332 kts | 51° |
| 2026-05-04 02:24 | 10.97279 | 122.12575 | 15471 ft | 329 kts | 51° |
| 2026-05-04 02:25 | 10.98763 | 122.14340 | 15052 ft | 327 kts | 51° |
| 2026-05-04 02:25 | 11.00235 | 122.16095 | 14637 ft | 324 kts | 51° |
| 2026-05-04 02:25 | 11.01691 | 122.17831 | 14204 ft | 322 kts | 51° |
| 2026-05-04 02:25 | 11.03144 | 122.19560 | 13788 ft | 320 kts | 52° |
| 2026-05-04 02:26 | 11.04587 | 122.21275 | 13322 ft | 317 kts | 51° |
| 2026-05-04 02:26 | 11.05536 | 122.22402 | 13034 ft | 316 kts | 51° |
| 2026-05-04 02:26 | 11.06962 | 122.24098 | 12608 ft | 315 kts | 51° |
| 2026-05-04 02:26 | 11.08386 | 122.25792 | 12177 ft | 315 kts | 51° |
| 2026-05-04 02:27 | 11.09808 | 122.27487 | 11741 ft | 316 kts | 51° |
| 2026-05-04 02:27 | 11.11231 | 122.29183 | 11434 ft | 311 kts | 50° |
| 2026-05-04 02:27 | 11.12618 | 122.30830 | 11335 ft | 301 kts | 51° |
| 2026-05-04 02:27 | 11.13953 | 122.32411 | 11255 ft | 289 kts | 51° |
| 2026-05-04 02:28 | 11.15163 | 122.33993 | 11151 ft | 279 kts | 60° |
| 2026-05-04 02:28 | 11.15930 | 122.35763 | 11010 ft | 270 kts | 74° |
| 2026-05-04 02:28 | 11.16235 | 122.37664 | 10534 ft | 276 kts | 89° |
| 2026-05-04 02:28 | 11.16236 | 122.39632 | 10090 ft | 280 kts | 89° |
| 2026-05-04 02:29 | 11.16245 | 122.41630 | 9611 ft | 284 kts | 89° |
| 2026-05-04 02:29 | 11.16260 | 122.43649 | 9144 ft | 286 kts | 89° |
| 2026-05-04 02:29 | 11.16278 | 122.45684 | 8687 ft | 288 kts | 89° |
| 2026-05-04 02:29 | 11.16295 | 122.47727 | 8234 ft | 289 kts | 89° |
| 2026-05-04 02:30 | 11.16312 | 122.49783 | 7771 ft | 291 kts | 89° |
| 2026-05-04 02:30 | 11.16294 | 122.51843 | 7301 ft | 292 kts | 95° |
| 2026-05-04 02:30 | 11.15850 | 122.53851 | 6826 ft | 293 kts | 109° |
| 2026-05-04 02:30 | 11.15069 | 122.55782 | 6200 ft | 299 kts | 117° |
| 2026-05-04 02:31 | 11.13743 | 122.57435 | 5680 ft | 303 kts | 139° |
| 2026-05-04 02:31 | 11.11937 | 122.58474 | 5458 ft | 297 kts | 158° |
| 2026-05-04 02:31 | 11.09923 | 122.58823 | 5176 ft | 294 kts | 178° |
| 2026-05-04 02:31 | 11.07916 | 122.58455 | 4841 ft | 295 kts | 197° |
| 2026-05-04 02:32 | 11.05995 | 122.57746 | 4456 ft | 292 kts | 198° |
| 2026-05-04 02:32 | 11.04096 | 122.57033 | 4083 ft | 290 kts | 198° |
| 2026-05-04 02:32 | 11.02233 | 122.56341 | 3716 ft | 288 kts | 198° |
| 2026-05-04 02:32 | 11.00350 | 122.55646 | 3350 ft | 288 kts | 198° |
| 2026-05-04 02:33 | 10.98480 | 122.54953 | 2982 ft | 284 kts | 198° |
| 2026-05-04 02:33 | 10.96629 | 122.54268 | 2627 ft | 282 kts | 199° |
| 2026-05-04 02:33 | 10.94797 | 122.53585 | 2190 ft | 281 kts | 200° |
| 2026-05-04 02:33 | 10.92974 | 122.52903 | 1830 ft | 272 kts | 199° |
| 2026-05-04 02:34 | 10.91272 | 122.52254 | 1680 ft | 245 kts | 200° |
| 2026-05-04 02:34 | 10.89806 | 122.51697 | 1648 ft | 206 kts | 199° |
| 2026-05-04 02:34 | 10.88537 | 122.51247 | 1289 ft | 185 kts | 198° |
| 2026-05-04 02:34 | 10.87357 | 122.50819 | 944 ft | 175 kts | 198° |
| 2026-05-04 02:35 | 10.86252 | 122.50405 | 657 ft | 163 kts | 197° |
| 2026-05-04 02:35 | 10.85213 | 122.50043 | 408 ft | 154 kts | 197° |
| 2026-05-04 02:35 | 10.84225 | 122.49673 | 175 ft | 148 kts | 197° |
| 2026-05-04 02:35 | 10.83380 | 122.49364 | 141 ft | 94 kts | 200° |
| 2026-05-04 02:36 | 10.83030 | 122.49233 | 140 ft | 30 kts | 199° |
| 2026-05-04 02:36 | 10.82838 | 122.49162 | 141 ft | 29 kts | 201° |
| 2026-05-04 02:36 | 10.82650 | 122.49093 | 140 ft | 27 kts | 200° |
| 2026-05-04 02:36 | 10.82483 | 122.49032 | 142 ft | 24 kts | 200° |
| 2026-05-04 02:37 | 10.82349 | 122.48978 | 143 ft | 15 kts | 210° |
| 2026-05-04 02:37 | 10.82266 | 122.48941 | 143 ft | 11 kts | 191° |
| 2026-05-04 02:37 | 10.82265 | 122.48983 | 143 ft | 8 kts | 30° |
| 2026-05-04 02:37 | 10.82326 | 122.48976 | 143 ft | 10 kts | 352° |
| 2026-05-04 02:38 | 10.82392 | 122.48999 | 147 ft | 11 kts | 20° |
| 2026-05-04 02:38 | 10.82470 | 122.49028 | 143 ft | 13 kts | 20° |
| 2026-05-04 02:38 | 10.82561 | 122.49062 | 141 ft | 15 kts | 19° |
| 2026-05-04 02:38 | 10.82668 | 122.49101 | 140 ft | 17 kts | 20° |
| 2026-05-04 02:39 | 10.82782 | 122.49144 | 140 ft | 18 kts | 20° |
| 2026-05-04 02:39 | 10.82900 | 122.49187 | 141 ft | 18 kts | 19° |
| 2026-05-04 02:39 | 10.83016 | 122.49230 | 140 ft | 14 kts | 20° |
| 2026-05-04 02:39 | 10.83088 | 122.49289 | 141 ft | 13 kts | 80° |
| 2026-05-04 02:40 | 10.83058 | 122.49386 | 140 ft | 16 kts | 109° |
| 2026-05-04 02:40 | 10.83028 | 122.49478 | 140 ft | 11 kts | 99° |
| 2026-05-04 02:40 | 10.83070 | 122.49539 | 140 ft | 10 kts | 26° |
| 2026-05-04 02:40 | 10.83131 | 122.49563 | 140 ft | 7 kts | 21° |
| 2026-05-04 02:41 | 10.83135 | 122.49600 | 141 ft | 6 kts | 124° |
| 2026-05-04 02:41 | 10.83121 | 122.49632 | 139 ft | 4 kts | 109° |
| 2026-05-04 02:41 | 10.83114 | 122.49650 | 139 ft | 2 kts | 109° |
| 2026-05-04 02:41 | 10.83114 | 122.49652 | 139 ft | 0 kts | 109° |